<?xml version='1.0' encoding='UTF-8'?><gpx version="1.1" creator="JPX - https://github.com/jenetics/jpx" xmlns="http://www.topografix.com/GPX/1/1"><trk><trkseg><trkpt lat="45.6185472" lon="11.3946494"><ele>406.00000000000006</ele><time>2026-03-29T08:02:25.314Z</time></trkpt><trkpt lat="45.6186083" lon="11.3945552"><ele>406.0</ele><time>2026-03-29T08:02:28.316Z</time></trkpt><trkpt lat="45.6186929" lon="11.3945076"><ele>406.0</ele><time>2026-03-29T08:02:30.314Z</time></trkpt><trkpt lat="45.618753" lon="11.3944772"><ele>406.0</ele><time>2026-03-29T08:02:31.314Z</time></trkpt><trkpt lat="45.6188452" lon="11.3944339"><ele>406.00000000000006</ele><time>2026-03-29T08:02:33.315Z</time></trkpt><trkpt lat="45.6189342" lon="11.3944167"><ele>406.0</ele><time>2026-03-29T08:02:35.315Z</time></trkpt><trkpt lat="45.6190498" lon="11.3943676"><ele>406.00000000000006</ele><time>2026-03-29T08:02:37.315Z</time></trkpt><trkpt lat="45.6191052" lon="11.3943031"><ele>406.0</ele><time>2026-03-29T08:02:38.315Z</time></trkpt><trkpt lat="45.6191684" lon="11.394232"><ele>406.0</ele><time>2026-03-29T08:02:39.315Z</time></trkpt><trkpt lat="45.6192296" lon="11.3941752"><ele>406.0</ele><time>2026-03-29T08:02:40.315Z</time></trkpt><trkpt lat="45.619294" lon="11.3941157"><ele>406.00000000000006</ele><time>2026-03-29T08:02:41.315Z</time></trkpt><trkpt lat="45.6193357" lon="11.394032"><ele>406.0</ele><time>2026-03-29T08:02:42.315Z</time></trkpt><trkpt lat="45.6194102" lon="11.3939607"><ele>406.00000000000006</ele><time>2026-03-29T08:02:43.317Z</time></trkpt><trkpt lat="45.6194752" lon="11.3938873"><ele>406.0</ele><time>2026-03-29T08:02:44.317Z</time></trkpt><trkpt lat="45.6195749" lon="11.3938729"><ele>406.0</ele><time>2026-03-29T08:02:45.316Z</time></trkpt><trkpt lat="45.6196727" lon="11.3938253"><ele>406.0</ele><time>2026-03-29T08:02:46.316Z</time></trkpt><trkpt lat="45.6197541" lon="11.3937708"><ele>406.00000000000006</ele><time>2026-03-29T08:02:47.315Z</time></trkpt><trkpt lat="45.6198231" lon="11.3937574"><ele>406.0</ele><time>2026-03-29T08:02:48.317Z</time></trkpt><trkpt lat="45.619879" lon="11.3936001"><ele>405.8</ele><time>2026-03-29T08:02:49.317Z</time></trkpt><trkpt lat="45.6199766" lon="11.3935446"><ele>405.6</ele><time>2026-03-29T08:02:50.317Z</time></trkpt><trkpt lat="45.6200497" lon="11.393486"><ele>405.4</ele><time>2026-03-29T08:02:51.316Z</time></trkpt><trkpt lat="45.6201413" lon="11.3934091"><ele>405.2</ele><time>2026-03-29T08:02:52.317Z</time></trkpt><trkpt lat="45.6202239" lon="11.393362"><ele>405.0</ele><time>2026-03-29T08:02:53.316Z</time></trkpt><trkpt lat="45.6203143" lon="11.3933501"><ele>402.4</ele><time>2026-03-29T08:02:54.316Z</time></trkpt><trkpt lat="45.6204134" lon="11.3933131"><ele>399.8</ele><time>2026-03-29T08:02:55.316Z</time></trkpt><trkpt lat="45.6205194" lon="11.3932849"><ele>397.20000000000005</ele><time>2026-03-29T08:02:56.315Z</time></trkpt><trkpt lat="45.6206272" lon="11.3932641"><ele>394.6</ele><time>2026-03-29T08:02:57.316Z</time></trkpt><trkpt lat="45.6207355" lon="11.393262"><ele>392.0</ele><time>2026-03-29T08:02:58.315Z</time></trkpt><trkpt lat="45.6208101" lon="11.3932099"><ele>392.0</ele><time>2026-03-29T08:02:59.316Z</time></trkpt><trkpt lat="45.6209185" lon="11.3931918"><ele>392.0</ele><time>2026-03-29T08:03:00.316Z</time></trkpt><trkpt lat="45.6210292" lon="11.3931676"><ele>392.0</ele><time>2026-03-29T08:03:01.317Z</time></trkpt><trkpt lat="45.6211378" lon="11.3931546"><ele>392.0</ele><time>2026-03-29T08:03:02.315Z</time></trkpt><trkpt lat="45.621246" lon="11.3931459"><ele>392.0</ele><time>2026-03-29T08:03:03.316Z</time></trkpt><trkpt lat="45.6213578" lon="11.3931474"><ele>388.20000000000005</ele><time>2026-03-29T08:03:04.315Z</time></trkpt><trkpt lat="45.6214337" lon="11.3930767"><ele>384.4</ele><time>2026-03-29T08:03:05.316Z</time></trkpt><trkpt lat="45.6215379" lon="11.3930498"><ele>380.6</ele><time>2026-03-29T08:03:06.316Z</time></trkpt><trkpt lat="45.6216387" lon="11.3930443"><ele>376.79999999999995</ele><time>2026-03-29T08:03:07.317Z</time></trkpt><trkpt lat="45.6217506" lon="11.3930329"><ele>373.0</ele><time>2026-03-29T08:03:08.315Z</time></trkpt><trkpt lat="45.6218515" lon="11.3929926"><ele>375.2</ele><time>2026-03-29T08:03:09.317Z</time></trkpt><trkpt lat="45.6219523" lon="11.3929467"><ele>377.4</ele><time>2026-03-29T08:03:10.316Z</time></trkpt><trkpt lat="45.6220438" lon="11.39284"><ele>379.59999999999997</ele><time>2026-03-29T08:03:11.315Z</time></trkpt><trkpt lat="45.6221413" lon="11.392786"><ele>381.79999999999995</ele><time>2026-03-29T08:03:12.316Z</time></trkpt><trkpt lat="45.6222551" lon="11.3927683"><ele>384.0</ele><time>2026-03-29T08:03:13.318Z</time></trkpt><trkpt lat="45.6223596" lon="11.392762"><ele>384.0</ele><time>2026-03-29T08:03:14.316Z</time></trkpt><trkpt lat="45.6224691" lon="11.3926856"><ele>384.0</ele><time>2026-03-29T08:03:15.316Z</time></trkpt><trkpt lat="45.622565" lon="11.3926542"><ele>384.0</ele><time>2026-03-29T08:03:16.317Z</time></trkpt><trkpt lat="45.6226638" lon="11.3925362"><ele>384.0</ele><time>2026-03-29T08:03:17.317Z</time></trkpt><trkpt lat="45.6227533" lon="11.3924323"><ele>382.0</ele><time>2026-03-29T08:03:18.316Z</time></trkpt><trkpt lat="45.6228459" lon="11.3923265"><ele>380.0</ele><time>2026-03-29T08:03:19.316Z</time></trkpt><trkpt lat="45.6229368" lon="11.3922452"><ele>378.0</ele><time>2026-03-29T08:03:20.316Z</time></trkpt><trkpt lat="45.6230297" lon="11.3921731"><ele>376.0</ele><time>2026-03-29T08:03:21.315Z</time></trkpt><trkpt lat="45.6231122" lon="11.392089"><ele>374.0</ele><time>2026-03-29T08:03:22.317Z</time></trkpt><trkpt lat="45.6232103" lon="11.3920116"><ele>374.0</ele><time>2026-03-29T08:03:23.316Z</time></trkpt><trkpt lat="45.6232963" lon="11.3919209"><ele>374.0</ele><time>2026-03-29T08:03:24.317Z</time></trkpt><trkpt lat="45.6233737" lon="11.3918212"><ele>374.0</ele><time>2026-03-29T08:03:25.315Z</time></trkpt><trkpt lat="45.6233969" lon="11.391627"><ele>374.0</ele><time>2026-03-29T08:03:26.315Z</time></trkpt><trkpt lat="45.6234387" lon="11.3914933"><ele>378.25</ele><time>2026-03-29T08:03:27.316Z</time></trkpt><trkpt lat="45.6234788" lon="11.3913296"><ele>382.5</ele><time>2026-03-29T08:03:28.317Z</time></trkpt><trkpt lat="45.6234855" lon="11.3911535"><ele>386.75</ele><time>2026-03-29T08:03:29.317Z</time></trkpt><trkpt lat="45.6234924" lon="11.391025"><ele>391.0</ele><time>2026-03-29T08:03:30.315Z</time></trkpt><trkpt lat="45.623512" lon="11.3908629"><ele>391.0</ele><time>2026-03-29T08:03:31.316Z</time></trkpt><trkpt lat="45.6235321" lon="11.3907222"><ele>391.0</ele><time>2026-03-29T08:03:32.316Z</time></trkpt><trkpt lat="45.6235653" lon="11.39059"><ele>391.0</ele><time>2026-03-29T08:03:33.316Z</time></trkpt><trkpt lat="45.6235954" lon="11.390459"><ele>391.0</ele><time>2026-03-29T08:03:34.315Z</time></trkpt><trkpt lat="45.6236582" lon="11.3903186"><ele>391.0</ele><time>2026-03-29T08:03:35.317Z</time></trkpt><trkpt lat="45.6237355" lon="11.39022"><ele>383.4</ele><time>2026-03-29T08:03:36.316Z</time></trkpt><trkpt lat="45.6238006" lon="11.3900919"><ele>375.8</ele><time>2026-03-29T08:03:37.317Z</time></trkpt><trkpt lat="45.623874" lon="11.3900075"><ele>368.2</ele><time>2026-03-29T08:03:38.315Z</time></trkpt><trkpt lat="45.6239494" lon="11.389925"><ele>360.59999999999997</ele><time>2026-03-29T08:03:39.317Z</time></trkpt><trkpt lat="45.624029" lon="11.3898369"><ele>353.0</ele><time>2026-03-29T08:03:40.316Z</time></trkpt><trkpt lat="45.6241025" lon="11.3897342"><ele>358.4</ele><time>2026-03-29T08:03:41.315Z</time></trkpt><trkpt lat="45.6241808" lon="11.3896655"><ele>363.79999999999995</ele><time>2026-03-29T08:03:42.316Z</time></trkpt><trkpt lat="45.6242467" lon="11.3895255"><ele>369.2</ele><time>2026-03-29T08:03:43.316Z</time></trkpt><trkpt lat="45.6243195" lon="11.3894475"><ele>374.6</ele><time>2026-03-29T08:03:44.315Z</time></trkpt><trkpt lat="45.624393" lon="11.3893736"><ele>380.0</ele><time>2026-03-29T08:03:45.316Z</time></trkpt><trkpt lat="45.6244633" lon="11.3892855"><ele>373.2</ele><time>2026-03-29T08:03:46.316Z</time></trkpt><trkpt lat="45.62454" lon="11.3891997"><ele>366.4</ele><time>2026-03-29T08:03:47.316Z</time></trkpt><trkpt lat="45.6246473" lon="11.3891418"><ele>359.6</ele><time>2026-03-29T08:03:48.317Z</time></trkpt><trkpt lat="45.6247398" lon="11.3890807"><ele>352.8</ele><time>2026-03-29T08:03:49.317Z</time></trkpt><trkpt lat="45.6248426" lon="11.3890182"><ele>346.0</ele><time>2026-03-29T08:03:50.317Z</time></trkpt><trkpt lat="45.6249411" lon="11.3889681"><ele>346.0</ele><time>2026-03-29T08:03:51.317Z</time></trkpt><trkpt lat="45.6250178" lon="11.3889133"><ele>346.0</ele><time>2026-03-29T08:03:52.316Z</time></trkpt><trkpt lat="45.6251062" lon="11.388825"><ele>346.0</ele><time>2026-03-29T08:03:53.316Z</time></trkpt><trkpt lat="45.6252093" lon="11.3888132"><ele>346.0</ele><time>2026-03-29T08:03:54.317Z</time></trkpt><trkpt lat="45.6252993" lon="11.3887416"><ele>346.0</ele><time>2026-03-29T08:03:55.315Z</time></trkpt><trkpt lat="45.6254036" lon="11.3887376"><ele>345.20000000000005</ele><time>2026-03-29T08:03:56.316Z</time></trkpt><trkpt lat="45.6254974" lon="11.3888458"><ele>344.40000000000003</ele><time>2026-03-29T08:03:57.315Z</time></trkpt><trkpt lat="45.6256071" lon="11.3888798"><ele>343.6</ele><time>2026-03-29T08:03:58.316Z</time></trkpt><trkpt lat="45.6256999" lon="11.3889459"><ele>342.8</ele><time>2026-03-29T08:03:59.317Z</time></trkpt><trkpt lat="45.6258083" lon="11.3889614"><ele>342.0</ele><time>2026-03-29T08:04:00.315Z</time></trkpt><trkpt lat="45.6259202" lon="11.3889868"><ele>342.0</ele><time>2026-03-29T08:04:01.317Z</time></trkpt><trkpt lat="45.626018" lon="11.3890075"><ele>342.0</ele><time>2026-03-29T08:04:02.317Z</time></trkpt><trkpt lat="45.6261365" lon="11.3890118"><ele>342.0</ele><time>2026-03-29T08:04:03.317Z</time></trkpt><trkpt lat="45.626258" lon="11.3890226"><ele>342.0</ele><time>2026-03-29T08:04:04.316Z</time></trkpt><trkpt lat="45.6263576" lon="11.389066"><ele>342.0</ele><time>2026-03-29T08:04:05.316Z</time></trkpt><trkpt lat="45.6264617" lon="11.389091"><ele>341.8</ele><time>2026-03-29T08:04:06.317Z</time></trkpt><trkpt lat="45.6265672" lon="11.38909"><ele>341.6</ele><time>2026-03-29T08:04:07.316Z</time></trkpt><trkpt lat="45.6266728" lon="11.3890853"><ele>341.40000000000003</ele><time>2026-03-29T08:04:08.317Z</time></trkpt><trkpt lat="45.62679" lon="11.3890362"><ele>341.20000000000005</ele><time>2026-03-29T08:04:09.316Z</time></trkpt><trkpt lat="45.6268846" lon="11.3890272"><ele>341.0</ele><time>2026-03-29T08:04:10.316Z</time></trkpt><trkpt lat="45.6269715" lon="11.3888829"><ele>343.0</ele><time>2026-03-29T08:04:11.317Z</time></trkpt><trkpt lat="45.6270636" lon="11.388786"><ele>345.0</ele><time>2026-03-29T08:04:12.315Z</time></trkpt><trkpt lat="45.6271425" lon="11.3886922"><ele>347.0</ele><time>2026-03-29T08:04:13.315Z</time></trkpt><trkpt lat="45.6272183" lon="11.3885982"><ele>349.0</ele><time>2026-03-29T08:04:14.316Z</time></trkpt><trkpt lat="45.627295" lon="11.3884978"><ele>351.0</ele><time>2026-03-29T08:04:15.317Z</time></trkpt><trkpt lat="45.627378" lon="11.388387"><ele>351.0</ele><time>2026-03-29T08:04:16.317Z</time></trkpt><trkpt lat="45.6274567" lon="11.3883016"><ele>351.0</ele><time>2026-03-29T08:04:17.316Z</time></trkpt><trkpt lat="45.6275355" lon="11.3882259"><ele>351.0</ele><time>2026-03-29T08:04:18.316Z</time></trkpt><trkpt lat="45.6276273" lon="11.3881676"><ele>351.0</ele><time>2026-03-29T08:04:19.316Z</time></trkpt><trkpt lat="45.6277184" lon="11.388111"><ele>351.0</ele><time>2026-03-29T08:04:20.315Z</time></trkpt><trkpt lat="45.6278277" lon="11.3881055"><ele>352.4</ele><time>2026-03-29T08:04:21.316Z</time></trkpt><trkpt lat="45.6279333" lon="11.3880798"><ele>353.8</ele><time>2026-03-29T08:04:22.316Z</time></trkpt><trkpt lat="45.6280473" lon="11.3880607"><ele>355.2</ele><time>2026-03-29T08:04:23.316Z</time></trkpt><trkpt lat="45.628151" lon="11.388019"><ele>356.59999999999997</ele><time>2026-03-29T08:04:24.317Z</time></trkpt><trkpt lat="45.6282424" lon="11.3879887"><ele>358.0</ele><time>2026-03-29T08:04:25.316Z</time></trkpt><trkpt lat="45.6283322" lon="11.3879478"><ele>358.0</ele><time>2026-03-29T08:04:26.316Z</time></trkpt><trkpt lat="45.6284315" lon="11.3878983"><ele>358.0</ele><time>2026-03-29T08:04:27.315Z</time></trkpt><trkpt lat="45.6285261" lon="11.3878569"><ele>358.0</ele><time>2026-03-29T08:04:28.316Z</time></trkpt><trkpt lat="45.6286106" lon="11.3877935"><ele>358.0</ele><time>2026-03-29T08:04:29.316Z</time></trkpt><trkpt lat="45.6286989" lon="11.3877387"><ele>358.0</ele><time>2026-03-29T08:04:30.315Z</time></trkpt><trkpt lat="45.6287905" lon="11.3876717"><ele>352.2</ele><time>2026-03-29T08:04:31.315Z</time></trkpt><trkpt lat="45.628878" lon="11.3875996"><ele>346.4</ele><time>2026-03-29T08:04:32.315Z</time></trkpt><trkpt lat="45.6289718" lon="11.3875375"><ele>340.59999999999997</ele><time>2026-03-29T08:04:33.317Z</time></trkpt><trkpt lat="45.6290621" lon="11.3874769"><ele>334.79999999999995</ele><time>2026-03-29T08:04:34.316Z</time></trkpt><trkpt lat="45.6291529" lon="11.3873924"><ele>329.0</ele><time>2026-03-29T08:04:35.315Z</time></trkpt><trkpt lat="45.6292428" lon="11.3873308"><ele>329.0</ele><time>2026-03-29T08:04:36.317Z</time></trkpt><trkpt lat="45.6293176" lon="11.3872482"><ele>329.0</ele><time>2026-03-29T08:04:37.316Z</time></trkpt><trkpt lat="45.6293973" lon="11.3871505"><ele>329.0</ele><time>2026-03-29T08:04:38.315Z</time></trkpt><trkpt lat="45.6294819" lon="11.387071"><ele>329.0</ele><time>2026-03-29T08:04:39.316Z</time></trkpt><trkpt lat="45.6295663" lon="11.3869824"><ele>329.0</ele><time>2026-03-29T08:04:40.316Z</time></trkpt><trkpt lat="45.6296411" lon="11.3868766"><ele>330.4</ele><time>2026-03-29T08:04:41.316Z</time></trkpt><trkpt lat="45.6297145" lon="11.3867823"><ele>331.79999999999995</ele><time>2026-03-29T08:04:42.317Z</time></trkpt><trkpt lat="45.6297757" lon="11.3866774"><ele>333.20000000000005</ele><time>2026-03-29T08:04:43.317Z</time></trkpt><trkpt lat="45.6298382" lon="11.3865573"><ele>334.6</ele><time>2026-03-29T08:04:44.316Z</time></trkpt><trkpt lat="45.6298948" lon="11.3864386"><ele>336.0</ele><time>2026-03-29T08:04:45.315Z</time></trkpt><trkpt lat="45.6299496" lon="11.3863277"><ele>336.0</ele><time>2026-03-29T08:04:46.316Z</time></trkpt><trkpt lat="45.6299996" lon="11.3862174"><ele>336.0</ele><time>2026-03-29T08:04:47.315Z</time></trkpt><trkpt lat="45.6300545" lon="11.3861072"><ele>336.0</ele><time>2026-03-29T08:04:48.316Z</time></trkpt><trkpt lat="45.6301051" lon="11.3859805"><ele>336.0</ele><time>2026-03-29T08:04:49.315Z</time></trkpt><trkpt lat="45.630154" lon="11.3858623"><ele>336.0</ele><time>2026-03-29T08:04:50.317Z</time></trkpt><trkpt lat="45.6301949" lon="11.3857432"><ele>336.0</ele><time>2026-03-29T08:04:51.316Z</time></trkpt><trkpt lat="45.6302356" lon="11.385562"><ele>336.0</ele><time>2026-03-29T08:04:52.315Z</time></trkpt><trkpt lat="45.630296" lon="11.3854179"><ele>336.0</ele><time>2026-03-29T08:04:53.316Z</time></trkpt><trkpt lat="45.6303644" lon="11.3853081"><ele>336.0</ele><time>2026-03-29T08:04:54.315Z</time></trkpt><trkpt lat="45.6304394" lon="11.3852113"><ele>329.8</ele><time>2026-03-29T08:04:55.316Z</time></trkpt><trkpt lat="45.6305188" lon="11.3851171"><ele>323.6</ele><time>2026-03-29T08:04:56.315Z</time></trkpt><trkpt lat="45.6306" lon="11.3850402"><ele>317.4</ele><time>2026-03-29T08:04:57.316Z</time></trkpt><trkpt lat="45.6306798" lon="11.3849586"><ele>311.2</ele><time>2026-03-29T08:04:58.316Z</time></trkpt><trkpt lat="45.6307594" lon="11.3848667"><ele>305.0</ele><time>2026-03-29T08:04:59.316Z</time></trkpt><trkpt lat="45.6308402" lon="11.3847927"><ele>305.0</ele><time>2026-03-29T08:05:00.316Z</time></trkpt><trkpt lat="45.6309138" lon="11.3846933"><ele>305.0</ele><time>2026-03-29T08:05:01.317Z</time></trkpt><trkpt lat="45.6310063" lon="11.384579"><ele>305.0</ele><time>2026-03-29T08:05:02.316Z</time></trkpt><trkpt lat="45.6311004" lon="11.3844919"><ele>305.0</ele><time>2026-03-29T08:05:03.317Z</time></trkpt><trkpt lat="45.6311761" lon="11.3843645"><ele>304.2</ele><time>2026-03-29T08:05:04.316Z</time></trkpt><trkpt lat="45.6312646" lon="11.3843085"><ele>303.4</ele><time>2026-03-29T08:05:05.316Z</time></trkpt><trkpt lat="45.6313625" lon="11.3843324"><ele>302.6</ele><time>2026-03-29T08:05:06.316Z</time></trkpt><trkpt lat="45.6314419" lon="11.3843139"><ele>301.8</ele><time>2026-03-29T08:05:07.315Z</time></trkpt><trkpt lat="45.6314922" lon="11.3842225"><ele>301.0</ele><time>2026-03-29T08:05:08.316Z</time></trkpt><trkpt lat="45.6315887" lon="11.3841272"><ele>301.0</ele><time>2026-03-29T08:05:10.315Z</time></trkpt><trkpt lat="45.6314771" lon="11.3841621"><ele>301.0</ele><time>2026-03-29T08:05:19.316Z</time></trkpt><trkpt lat="45.6314065" lon="11.3841557"><ele>301.0</ele><time>2026-03-29T08:05:21.316Z</time></trkpt><trkpt lat="45.6313291" lon="11.384205"><ele>301.0</ele><time>2026-03-29T08:05:24.316Z</time></trkpt><trkpt lat="45.6312698" lon="11.3842395"><ele>301.0</ele><time>2026-03-29T08:05:27.317Z</time></trkpt><trkpt lat="45.6312123" lon="11.3843421"><ele>301.0</ele><time>2026-03-29T08:05:38.317Z</time></trkpt><trkpt lat="45.6311588" lon="11.3844287"><ele>302.0</ele><time>2026-03-29T08:05:41.316Z</time></trkpt><trkpt lat="45.6310733" lon="11.3845733"><ele>303.0</ele><time>2026-03-29T08:05:43.316Z</time></trkpt><trkpt lat="45.6310232" lon="11.3846518"><ele>304.0</ele><time>2026-03-29T08:05:44.316Z</time></trkpt><trkpt lat="45.6309804" lon="11.3847247"><ele>305.0</ele><time>2026-03-29T08:05:45.317Z</time></trkpt><trkpt lat="45.6306501" lon="11.3851549"><ele>305.0</ele><time>2026-03-29T08:05:46.316Z</time></trkpt><trkpt lat="45.6306468" lon="11.3852897"><ele>305.0</ele><time>2026-03-29T08:05:49.316Z</time></trkpt><trkpt lat="45.6306122" lon="11.3854075"><ele>305.0</ele><time>2026-03-29T08:05:50.316Z</time></trkpt><trkpt lat="45.6305986" lon="11.3855131"><ele>305.0</ele><time>2026-03-29T08:05:51.316Z</time></trkpt><trkpt lat="45.6305674" lon="11.3856028"><ele>305.0</ele><time>2026-03-29T08:05:52.316Z</time></trkpt><trkpt lat="45.6305333" lon="11.3858272"><ele>302.0</ele><time>2026-03-29T08:05:54.316Z</time></trkpt><trkpt lat="45.6304891" lon="11.3859852"><ele>299.0</ele><time>2026-03-29T08:05:55.316Z</time></trkpt><trkpt lat="45.630546" lon="11.3861239"><ele>296.0</ele><time>2026-03-29T08:05:56.316Z</time></trkpt><trkpt lat="45.6305825" lon="11.3862313"><ele>293.0</ele><time>2026-03-29T08:05:57.315Z</time></trkpt><trkpt lat="45.630655" lon="11.3863418"><ele>290.0</ele><time>2026-03-29T08:05:58.317Z</time></trkpt><trkpt lat="45.6307085" lon="11.3864552"><ele>290.0</ele><time>2026-03-29T08:05:59.315Z</time></trkpt><trkpt lat="45.6307996" lon="11.3865402"><ele>290.0</ele><time>2026-03-29T08:06:01.316Z</time></trkpt><trkpt lat="45.6308833" lon="11.3866856"><ele>290.0</ele><time>2026-03-29T08:06:03.316Z</time></trkpt><trkpt lat="45.6309556" lon="11.3867574"><ele>290.0</ele><time>2026-03-29T08:06:04.316Z</time></trkpt><trkpt lat="45.6309992" lon="11.3868442"><ele>290.0</ele><time>2026-03-29T08:06:05.317Z</time></trkpt><trkpt lat="45.6310749" lon="11.3869168"><ele>290.0</ele><time>2026-03-29T08:06:06.316Z</time></trkpt><trkpt lat="45.6311303" lon="11.3869831"><ele>290.0</ele><time>2026-03-29T08:06:07.317Z</time></trkpt><trkpt lat="45.631173" lon="11.3870632"><ele>290.0</ele><time>2026-03-29T08:06:08.317Z</time></trkpt><trkpt lat="45.6312226" lon="11.3871427"><ele>290.0</ele><time>2026-03-29T08:06:09.315Z</time></trkpt><trkpt lat="45.6312653" lon="11.3872389"><ele>290.0</ele><time>2026-03-29T08:06:10.316Z</time></trkpt><trkpt lat="45.6313049" lon="11.3873419"><ele>290.0</ele><time>2026-03-29T08:06:11.316Z</time></trkpt><trkpt lat="45.6312264" lon="11.3873927"><ele>290.14285714285717</ele><time>2026-03-29T08:06:16.316Z</time></trkpt><trkpt lat="45.6312037" lon="11.3875059"><ele>290.28571428571433</ele><time>2026-03-29T08:06:22.317Z</time></trkpt><trkpt lat="45.6311802" lon="11.3875911"><ele>290.42857142857144</ele><time>2026-03-29T08:06:26.317Z</time></trkpt><trkpt lat="45.6311502" lon="11.3876953"><ele>290.57142857142856</ele><time>2026-03-29T08:06:31.316Z</time></trkpt><trkpt lat="45.631159" lon="11.3878015"><ele>290.71428571428567</ele><time>2026-03-29T08:06:34.317Z</time></trkpt><trkpt lat="45.6311756" lon="11.3879054"><ele>290.85714285714283</ele><time>2026-03-29T08:06:37.317Z</time></trkpt><trkpt lat="45.6311748" lon="11.3880114"><ele>291.0</ele><time>2026-03-29T08:06:42.316Z</time></trkpt><trkpt lat="45.6311614" lon="11.3881069"><ele>292.6666666666667</ele><time>2026-03-29T08:06:45.316Z</time></trkpt><trkpt lat="45.631151" lon="11.3882071"><ele>294.3333333333333</ele><time>2026-03-29T08:06:48.316Z</time></trkpt><trkpt lat="45.6311519" lon="11.3883463"><ele>296.0</ele><time>2026-03-29T08:06:51.315Z</time></trkpt><trkpt lat="45.631173" lon="11.388458"><ele>297.66666666666663</ele><time>2026-03-29T08:06:53.316Z</time></trkpt><trkpt lat="45.6311981" lon="11.3885622"><ele>299.3333333333333</ele><time>2026-03-29T08:06:55.316Z</time></trkpt><trkpt lat="45.631211" lon="11.3886861"><ele>301.0</ele><time>2026-03-29T08:06:58.317Z</time></trkpt><trkpt lat="45.6312064" lon="11.388792"><ele>302.85714285714283</ele><time>2026-03-29T08:07:02.317Z</time></trkpt><trkpt lat="45.6311888" lon="11.3888876"><ele>304.7142857142857</ele><time>2026-03-29T08:07:06.316Z</time></trkpt><trkpt lat="45.6311547" lon="11.3889861"><ele>306.57142857142856</ele><time>2026-03-29T08:07:10.315Z</time></trkpt><trkpt lat="45.6311033" lon="11.3890625"><ele>308.42857142857144</ele><time>2026-03-29T08:07:13.316Z</time></trkpt><trkpt lat="45.631058" lon="11.3891581"><ele>310.2857142857143</ele><time>2026-03-29T08:07:16.317Z</time></trkpt><trkpt lat="45.6310611" lon="11.389253"><ele>312.1428571428571</ele><time>2026-03-29T08:07:20.316Z</time></trkpt><trkpt lat="45.6310796" lon="11.3893664"><ele>314.0</ele><time>2026-03-29T08:07:24.315Z</time></trkpt><trkpt lat="45.6311089" lon="11.3894721"><ele>313.99999999999994</ele><time>2026-03-29T08:07:27.316Z</time></trkpt><trkpt lat="45.6311544" lon="11.3895748"><ele>314.0</ele><time>2026-03-29T08:07:30.317Z</time></trkpt><trkpt lat="45.6312025" lon="11.3896635"><ele>314.0</ele><time>2026-03-29T08:07:33.316Z</time></trkpt><trkpt lat="45.6312439" lon="11.3897365"><ele>314.0</ele><time>2026-03-29T08:07:36.315Z</time></trkpt><trkpt lat="45.6312593" lon="11.3898348"><ele>314.0</ele><time>2026-03-29T08:07:41.316Z</time></trkpt><trkpt lat="45.6312016" lon="11.3898755"><ele>313.99999999999994</ele><time>2026-03-29T08:07:50.316Z</time></trkpt><trkpt lat="45.6311369" lon="11.389906"><ele>314.0</ele><time>2026-03-29T08:07:58.315Z</time></trkpt><trkpt lat="45.6310698" lon="11.3899647"><ele>310.99999999999994</ele><time>2026-03-29T08:08:04.316Z</time></trkpt><trkpt lat="45.631023" lon="11.3900406"><ele>308.0</ele><time>2026-03-29T08:08:07.316Z</time></trkpt><trkpt lat="45.6309855" lon="11.3901315"><ele>305.0</ele><time>2026-03-29T08:08:11.315Z</time></trkpt><trkpt lat="45.6309418" lon="11.3902062"><ele>302.0</ele><time>2026-03-29T08:08:15.316Z</time></trkpt><trkpt lat="45.6309091" lon="11.3903103"><ele>299.0</ele><time>2026-03-29T08:08:19.315Z</time></trkpt><trkpt lat="45.6308588" lon="11.3903906"><ele>295.99999999999994</ele><time>2026-03-29T08:08:22.317Z</time></trkpt><trkpt lat="45.6307947" lon="11.3904156"><ele>293.0</ele><time>2026-03-29T08:08:27.316Z</time></trkpt><trkpt lat="45.6307315" lon="11.3904707"><ele>296.99999999999994</ele><time>2026-03-29T08:08:31.316Z</time></trkpt><trkpt lat="45.6306672" lon="11.3905227"><ele>301.0</ele><time>2026-03-29T08:08:34.316Z</time></trkpt><trkpt lat="45.6306078" lon="11.3905603"><ele>305.0</ele><time>2026-03-29T08:08:37.317Z</time></trkpt><trkpt lat="45.6305465" lon="11.3906068"><ele>309.0</ele><time>2026-03-29T08:08:40.317Z</time></trkpt><trkpt lat="45.6304825" lon="11.3906333"><ele>313.0</ele><time>2026-03-29T08:08:44.315Z</time></trkpt><trkpt lat="45.6304372" lon="11.3907266"><ele>316.99999999999994</ele><time>2026-03-29T08:08:48.315Z</time></trkpt><trkpt lat="45.63038" lon="11.3907752"><ele>321.0</ele><time>2026-03-29T08:08:53.316Z</time></trkpt><trkpt lat="45.6303407" lon="11.3908533"><ele>316.8333333333333</ele><time>2026-03-29T08:08:56.316Z</time></trkpt><trkpt lat="45.6302918" lon="11.3909463"><ele>312.6666666666667</ele><time>2026-03-29T08:08:59.317Z</time></trkpt><trkpt lat="45.6302343" lon="11.3910189"><ele>308.5</ele><time>2026-03-29T08:09:02.315Z</time></trkpt><trkpt lat="45.6301764" lon="11.3910596"><ele>304.33333333333337</ele><time>2026-03-29T08:09:05.317Z</time></trkpt><trkpt lat="45.6301149" lon="11.3911379"><ele>300.1666666666667</ele><time>2026-03-29T08:09:09.317Z</time></trkpt><trkpt lat="45.6300682" lon="11.3912223"><ele>296.0</ele><time>2026-03-29T08:09:13.316Z</time></trkpt><trkpt lat="45.6300224" lon="11.3913077"><ele>300.1666666666667</ele><time>2026-03-29T08:09:17.316Z</time></trkpt><trkpt lat="45.629992" lon="11.3913918"><ele>304.33333333333337</ele><time>2026-03-29T08:09:20.316Z</time></trkpt><trkpt lat="45.6299359" lon="11.3914834"><ele>308.5</ele><time>2026-03-29T08:09:23.316Z</time></trkpt><trkpt lat="45.6298879" lon="11.3915497"><ele>312.6666666666667</ele><time>2026-03-29T08:09:26.317Z</time></trkpt><trkpt lat="45.6298368" lon="11.3916219"><ele>316.8333333333333</ele><time>2026-03-29T08:09:29.316Z</time></trkpt><trkpt lat="45.6297752" lon="11.3917039"><ele>321.0</ele><time>2026-03-29T08:09:33.316Z</time></trkpt><trkpt lat="45.6297281" lon="11.391794"><ele>320.99999999999994</ele><time>2026-03-29T08:09:37.315Z</time></trkpt><trkpt lat="45.6296792" lon="11.3918802"><ele>321.0</ele><time>2026-03-29T08:09:41.316Z</time></trkpt><trkpt lat="45.6296411" lon="11.3919729"><ele>321.0</ele><time>2026-03-29T08:09:45.316Z</time></trkpt><trkpt lat="45.6295901" lon="11.3920274"><ele>321.0</ele><time>2026-03-29T08:09:49.317Z</time></trkpt><trkpt lat="45.6295464" lon="11.3921185"><ele>321.0</ele><time>2026-03-29T08:09:53.317Z</time></trkpt><trkpt lat="45.6294892" lon="11.3921933"><ele>320.99999999999994</ele><time>2026-03-29T08:09:57.316Z</time></trkpt><trkpt lat="45.6294328" lon="11.3922675"><ele>321.0</ele><time>2026-03-29T08:10:01.316Z</time></trkpt><trkpt lat="45.6293838" lon="11.3923463"><ele>318.3333333333333</ele><time>2026-03-29T08:10:05.316Z</time></trkpt><trkpt lat="45.6293355" lon="11.3924227"><ele>315.6666666666667</ele><time>2026-03-29T08:10:09.317Z</time></trkpt><trkpt lat="45.6293259" lon="11.3925244"><ele>313.0</ele><time>2026-03-29T08:10:12.316Z</time></trkpt><trkpt lat="45.6292899" lon="11.3926292"><ele>310.33333333333337</ele><time>2026-03-29T08:10:16.316Z</time></trkpt><trkpt lat="45.6292341" lon="11.3927141"><ele>307.6666666666667</ele><time>2026-03-29T08:10:20.317Z</time></trkpt><trkpt lat="45.6292181" lon="11.3928336"><ele>305.0</ele><time>2026-03-29T08:10:23.316Z</time></trkpt><trkpt lat="45.629189" lon="11.3929355"><ele>308.2857142857143</ele><time>2026-03-29T08:10:27.315Z</time></trkpt><trkpt lat="45.6291491" lon="11.3930274"><ele>311.57142857142856</ele><time>2026-03-29T08:10:31.317Z</time></trkpt><trkpt lat="45.6291112" lon="11.3931047"><ele>314.85714285714283</ele><time>2026-03-29T08:10:35.316Z</time></trkpt><trkpt lat="45.6290581" lon="11.3931628"><ele>318.1428571428571</ele><time>2026-03-29T08:10:39.317Z</time></trkpt><trkpt lat="45.6290057" lon="11.393225"><ele>321.42857142857144</ele><time>2026-03-29T08:10:43.316Z</time></trkpt><trkpt lat="45.6289686" lon="11.39332"><ele>324.71428571428567</ele><time>2026-03-29T08:10:46.316Z</time></trkpt><trkpt lat="45.628938" lon="11.3934116"><ele>328.0</ele><time>2026-03-29T08:10:49.316Z</time></trkpt><trkpt lat="45.6288969" lon="11.393493"><ele>327.99999999999994</ele><time>2026-03-29T08:10:53.315Z</time></trkpt><trkpt lat="45.6288606" lon="11.3935681"><ele>328.0</ele><time>2026-03-29T08:10:57.316Z</time></trkpt><trkpt lat="45.628814" lon="11.3936494"><ele>328.0</ele><time>2026-03-29T08:11:01.317Z</time></trkpt><trkpt lat="45.62877" lon="11.3937191"><ele>328.0</ele><time>2026-03-29T08:11:04.316Z</time></trkpt><trkpt lat="45.6287448" lon="11.3938291"><ele>328.0</ele><time>2026-03-29T08:11:07.317Z</time></trkpt><trkpt lat="45.628719" lon="11.3939225"><ele>327.99999999999994</ele><time>2026-03-29T08:11:10.315Z</time></trkpt><trkpt lat="45.6286892" lon="11.3940324"><ele>328.0</ele><time>2026-03-29T08:11:13.315Z</time></trkpt><trkpt lat="45.6286679" lon="11.3941477"><ele>329.4285714285714</ele><time>2026-03-29T08:11:16.316Z</time></trkpt><trkpt lat="45.6286756" lon="11.394248"><ele>330.85714285714283</ele><time>2026-03-29T08:11:19.317Z</time></trkpt><trkpt lat="45.6287198" lon="11.3943209"><ele>332.2857142857143</ele><time>2026-03-29T08:11:22.316Z</time></trkpt><trkpt lat="45.6287783" lon="11.3943599"><ele>333.71428571428567</ele><time>2026-03-29T08:11:26.316Z</time></trkpt><trkpt lat="45.6288412" lon="11.3943825"><ele>335.1428571428571</ele><time>2026-03-29T08:11:29.316Z</time></trkpt><trkpt lat="45.6289091" lon="11.3944244"><ele>336.57142857142856</ele><time>2026-03-29T08:11:33.316Z</time></trkpt><trkpt lat="45.6289795" lon="11.3944454"><ele>338.0</ele><time>2026-03-29T08:11:37.315Z</time></trkpt><trkpt lat="45.6290502" lon="11.3944718"><ele>338.0</ele><time>2026-03-29T08:11:41.315Z</time></trkpt><trkpt lat="45.6291183" lon="11.3945199"><ele>338.0</ele><time>2026-03-29T08:11:46.316Z</time></trkpt><trkpt lat="45.6291849" lon="11.3945553"><ele>338.0</ele><time>2026-03-29T08:11:50.316Z</time></trkpt><trkpt lat="45.6292562" lon="11.3946002"><ele>338.0</ele><time>2026-03-29T08:11:55.315Z</time></trkpt><trkpt lat="45.6293267" lon="11.3946422"><ele>338.0</ele><time>2026-03-29T08:11:59.316Z</time></trkpt><trkpt lat="45.6293865" lon="11.3946834"><ele>338.0</ele><time>2026-03-29T08:12:03.316Z</time></trkpt><trkpt lat="45.6294522" lon="11.3947386"><ele>338.0</ele><time>2026-03-29T08:12:07.316Z</time></trkpt><trkpt lat="45.6294894" lon="11.3948348"><ele>339.0</ele><time>2026-03-29T08:12:12.316Z</time></trkpt><trkpt lat="45.6295539" lon="11.394874"><ele>340.0</ele><time>2026-03-29T08:12:16.317Z</time></trkpt><trkpt lat="45.6296241" lon="11.3948911"><ele>341.0</ele><time>2026-03-29T08:12:19.316Z</time></trkpt><trkpt lat="45.6296982" lon="11.3949134"><ele>342.0</ele><time>2026-03-29T08:12:22.317Z</time></trkpt><trkpt lat="45.62976" lon="11.3949401"><ele>343.0</ele><time>2026-03-29T08:12:25.317Z</time></trkpt><trkpt lat="45.6298334" lon="11.3949742"><ele>344.0</ele><time>2026-03-29T08:12:29.316Z</time></trkpt><trkpt lat="45.6298984" lon="11.3950179"><ele>345.0</ele><time>2026-03-29T08:12:33.316Z</time></trkpt><trkpt lat="45.6299584" lon="11.3950713"><ele>345.0</ele><time>2026-03-29T08:12:37.316Z</time></trkpt><trkpt lat="45.6299976" lon="11.3951607"><ele>345.0</ele><time>2026-03-29T08:12:43.316Z</time></trkpt><trkpt lat="45.6300157" lon="11.3952659"><ele>345.0</ele><time>2026-03-29T08:12:49.315Z</time></trkpt><trkpt lat="45.6300493" lon="11.3953424"><ele>345.0</ele><time>2026-03-29T08:12:52.317Z</time></trkpt><trkpt lat="45.6300944" lon="11.3954298"><ele>345.0</ele><time>2026-03-29T08:12:56.316Z</time></trkpt><trkpt lat="45.6301382" lon="11.3955109"><ele>345.0</ele><time>2026-03-29T08:13:00.316Z</time></trkpt><trkpt lat="45.6301663" lon="11.3956105"><ele>345.0</ele><time>2026-03-29T08:13:04.317Z</time></trkpt><trkpt lat="45.6301876" lon="11.3957109"><ele>342.42857142857144</ele><time>2026-03-29T08:13:08.315Z</time></trkpt><trkpt lat="45.6302011" lon="11.3958219"><ele>339.85714285714283</ele><time>2026-03-29T08:13:12.317Z</time></trkpt><trkpt lat="45.6302151" lon="11.395913"><ele>337.2857142857143</ele><time>2026-03-29T08:13:15.316Z</time></trkpt><trkpt lat="45.6302244" lon="11.3960041"><ele>334.7142857142857</ele><time>2026-03-29T08:13:18.315Z</time></trkpt><trkpt lat="45.6302339" lon="11.3961207"><ele>332.14285714285717</ele><time>2026-03-29T08:13:22.317Z</time></trkpt><trkpt lat="45.6302579" lon="11.3962182"><ele>329.57142857142856</ele><time>2026-03-29T08:13:25.317Z</time></trkpt><trkpt lat="45.6302936" lon="11.3962996"><ele>327.0</ele><time>2026-03-29T08:13:28.318Z</time></trkpt><trkpt lat="45.6303023" lon="11.3963979"><ele>325.3333333333333</ele><time>2026-03-29T08:13:31.317Z</time></trkpt><trkpt lat="45.6303054" lon="11.3964911"><ele>323.6666666666667</ele><time>2026-03-29T08:13:34.317Z</time></trkpt><trkpt lat="45.6303389" lon="11.3965938"><ele>322.0</ele><time>2026-03-29T08:13:38.316Z</time></trkpt><trkpt lat="45.6303862" lon="11.3966856"><ele>320.33333333333337</ele><time>2026-03-29T08:13:41.317Z</time></trkpt><trkpt lat="45.6304269" lon="11.3967888"><ele>318.6666666666667</ele><time>2026-03-29T08:13:44.316Z</time></trkpt><trkpt lat="45.6304896" lon="11.3968726"><ele>317.0</ele><time>2026-03-29T08:13:46.318Z</time></trkpt><trkpt lat="45.6305789" lon="11.3969305"><ele>324.33333333333337</ele><time>2026-03-29T08:13:48.317Z</time></trkpt><trkpt lat="45.6306491" lon="11.3969571"><ele>331.6666666666667</ele><time>2026-03-29T08:13:50.317Z</time></trkpt><trkpt lat="45.6307269" lon="11.3969894"><ele>339.0</ele><time>2026-03-29T08:13:53.317Z</time></trkpt><trkpt lat="45.6308017" lon="11.3970258"><ele>346.3333333333333</ele><time>2026-03-29T08:13:57.317Z</time></trkpt><trkpt lat="45.6308847" lon="11.3970066"><ele>353.66666666666663</ele><time>2026-03-29T08:14:01.317Z</time></trkpt><trkpt lat="45.6309484" lon="11.3969875"><ele>361.0</ele><time>2026-03-29T08:14:05.317Z</time></trkpt><trkpt lat="45.6310194" lon="11.3970012"><ele>361.0</ele><time>2026-03-29T08:14:10.318Z</time></trkpt><trkpt lat="45.6310865" lon="11.3969979"><ele>361.0</ele><time>2026-03-29T08:14:15.318Z</time></trkpt><trkpt lat="45.6311409" lon="11.397048"><ele>361.0</ele><time>2026-03-29T08:14:20.318Z</time></trkpt><trkpt lat="45.6312017" lon="11.3970864"><ele>361.0</ele><time>2026-03-29T08:14:25.317Z</time></trkpt><trkpt lat="45.6312906" lon="11.3970961"><ele>361.0</ele><time>2026-03-29T08:14:31.317Z</time></trkpt><trkpt lat="45.6313578" lon="11.3971151"><ele>361.0</ele><time>2026-03-29T08:14:36.317Z</time></trkpt><trkpt lat="45.6332004" lon="11.3980691"><ele>362.14285714285717</ele><time>2026-03-29T08:16:24.316Z</time></trkpt><trkpt lat="45.6332454" lon="11.3981408"><ele>363.2857142857143</ele><time>2026-03-29T08:16:29.316Z</time></trkpt><trkpt lat="45.6333038" lon="11.3981862"><ele>364.42857142857144</ele><time>2026-03-29T08:16:34.317Z</time></trkpt><trkpt lat="45.633347" lon="11.3982651"><ele>365.57142857142856</ele><time>2026-03-29T08:16:40.317Z</time></trkpt><trkpt lat="45.6333827" lon="11.3983419"><ele>366.71428571428567</ele><time>2026-03-29T08:16:45.317Z</time></trkpt><trkpt lat="45.6334195" lon="11.3984354"><ele>367.85714285714283</ele><time>2026-03-29T08:16:52.318Z</time></trkpt><trkpt lat="45.6334261" lon="11.3985371"><ele>369.0</ele><time>2026-03-29T08:16:59.317Z</time></trkpt><trkpt lat="45.6334635" lon="11.3986312"><ele>369.0</ele><time>2026-03-29T08:17:04.318Z</time></trkpt><trkpt lat="45.6335132" lon="11.3987075"><ele>369.0</ele><time>2026-03-29T08:17:08.318Z</time></trkpt><trkpt lat="45.633538" lon="11.3987904"><ele>369.0</ele><time>2026-03-29T08:17:12.317Z</time></trkpt><trkpt lat="45.6335834" lon="11.3988766"><ele>369.0</ele><time>2026-03-29T08:17:16.318Z</time></trkpt><trkpt lat="45.6336363" lon="11.3989426"><ele>369.0</ele><time>2026-03-29T08:17:19.317Z</time></trkpt><trkpt lat="45.6336808" lon="11.3990133"><ele>369.0</ele><time>2026-03-29T08:17:22.317Z</time></trkpt><trkpt lat="45.6337413" lon="11.3990892"><ele>369.0</ele><time>2026-03-29T08:17:26.317Z</time></trkpt><trkpt lat="45.6337963" lon="11.3991558"><ele>371.57142857142856</ele><time>2026-03-29T08:17:30.318Z</time></trkpt><trkpt lat="45.6338513" lon="11.3992245"><ele>374.1428571428571</ele><time>2026-03-29T08:17:35.316Z</time></trkpt><trkpt lat="45.6338975" lon="11.3992901"><ele>376.7142857142857</ele><time>2026-03-29T08:17:39.317Z</time></trkpt><trkpt lat="45.6339298" lon="11.3993675"><ele>379.2857142857143</ele><time>2026-03-29T08:17:43.318Z</time></trkpt><trkpt lat="45.6339797" lon="11.3994491"><ele>381.8571428571429</ele><time>2026-03-29T08:17:48.318Z</time></trkpt><trkpt lat="45.6340482" lon="11.3994854"><ele>384.42857142857144</ele><time>2026-03-29T08:17:52.317Z</time></trkpt><trkpt lat="45.6341101" lon="11.3995096"><ele>387.0</ele><time>2026-03-29T08:17:55.316Z</time></trkpt><trkpt lat="45.6341776" lon="11.3994987"><ele>387.0</ele><time>2026-03-29T08:17:58.316Z</time></trkpt><trkpt lat="45.6342522" lon="11.3994872"><ele>387.0</ele><time>2026-03-29T08:18:02.317Z</time></trkpt><trkpt lat="45.6343248" lon="11.3994927"><ele>387.0</ele><time>2026-03-29T08:18:08.316Z</time></trkpt><trkpt lat="45.6343891" lon="11.3994746"><ele>387.0</ele><time>2026-03-29T08:18:13.316Z</time></trkpt><trkpt lat="45.634479" lon="11.3994634"><ele>387.0</ele><time>2026-03-29T08:18:21.318Z</time></trkpt><trkpt lat="45.6346055" lon="11.3994839"><ele>387.0</ele><time>2026-03-29T08:18:33.316Z</time></trkpt><trkpt lat="45.6348002" lon="11.3994873"><ele>386.42857142857144</ele><time>2026-03-29T08:18:48.317Z</time></trkpt><trkpt lat="45.6348743" lon="11.3995053"><ele>385.8571428571429</ele><time>2026-03-29T08:18:52.316Z</time></trkpt><trkpt lat="45.6349504" lon="11.3995204"><ele>385.2857142857143</ele><time>2026-03-29T08:18:57.317Z</time></trkpt><trkpt lat="45.6350063" lon="11.3995788"><ele>384.7142857142857</ele><time>2026-03-29T08:19:02.317Z</time></trkpt><trkpt lat="45.6350661" lon="11.3996271"><ele>384.1428571428571</ele><time>2026-03-29T08:19:07.317Z</time></trkpt><trkpt lat="45.63514" lon="11.3996803"><ele>383.57142857142856</ele><time>2026-03-29T08:19:12.316Z</time></trkpt><trkpt lat="45.6351952" lon="11.3997276"><ele>383.0</ele><time>2026-03-29T08:19:15.317Z</time></trkpt><trkpt lat="45.635265" lon="11.3997773"><ele>385.2857142857143</ele><time>2026-03-29T08:19:19.317Z</time></trkpt><trkpt lat="45.6353255" lon="11.3998084"><ele>387.57142857142856</ele><time>2026-03-29T08:19:23.318Z</time></trkpt><trkpt lat="45.6353966" lon="11.3998251"><ele>389.8571428571429</ele><time>2026-03-29T08:19:27.317Z</time></trkpt><trkpt lat="45.6354737" lon="11.3998527"><ele>392.1428571428571</ele><time>2026-03-29T08:19:32.318Z</time></trkpt><trkpt lat="45.6355371" lon="11.3998463"><ele>394.42857142857144</ele><time>2026-03-29T08:19:35.318Z</time></trkpt><trkpt lat="45.6356197" lon="11.3998248"><ele>396.7142857142857</ele><time>2026-03-29T08:19:39.316Z</time></trkpt><trkpt lat="45.635702" lon="11.3997952"><ele>399.0</ele><time>2026-03-29T08:19:43.316Z</time></trkpt><trkpt lat="45.6357721" lon="11.3997737"><ele>399.0</ele><time>2026-03-29T08:19:47.317Z</time></trkpt><trkpt lat="45.6358218" lon="11.3998381"><ele>399.0</ele><time>2026-03-29T08:19:52.317Z</time></trkpt><trkpt lat="45.6357986" lon="11.399933"><ele>399.0</ele><time>2026-03-29T08:20:02.316Z</time></trkpt><trkpt lat="45.6357903" lon="11.4000287"><ele>399.0</ele><time>2026-03-29T08:20:05.317Z</time></trkpt><trkpt lat="45.6357761" lon="11.4001187"><ele>399.0</ele><time>2026-03-29T08:20:08.317Z</time></trkpt><trkpt lat="45.6357751" lon="11.4002233"><ele>399.0</ele><time>2026-03-29T08:20:10.317Z</time></trkpt><trkpt lat="45.6357739" lon="11.4003466"><ele>399.0</ele><time>2026-03-29T08:20:13.317Z</time></trkpt><trkpt lat="45.6357669" lon="11.4004884"><ele>397.5</ele><time>2026-03-29T08:20:15.316Z</time></trkpt><trkpt lat="45.6357675" lon="11.4006547"><ele>396.0</ele><time>2026-03-29T08:20:17.318Z</time></trkpt><trkpt lat="45.6357635" lon="11.4007512"><ele>394.5</ele><time>2026-03-29T08:20:18.317Z</time></trkpt><trkpt lat="45.6357599" lon="11.4008505"><ele>393.0</ele><time>2026-03-29T08:20:19.318Z</time></trkpt><trkpt lat="45.6357573" lon="11.4009582"><ele>391.5</ele><time>2026-03-29T08:20:20.317Z</time></trkpt><trkpt lat="45.6357564" lon="11.401074"><ele>390.0</ele><time>2026-03-29T08:20:21.317Z</time></trkpt><trkpt lat="45.6357507" lon="11.401169"><ele>390.0</ele><time>2026-03-29T08:20:22.317Z</time></trkpt><trkpt lat="45.6357643" lon="11.4012863"><ele>390.0</ele><time>2026-03-29T08:20:23.318Z</time></trkpt><trkpt lat="45.6358379" lon="11.4013939"><ele>390.0</ele><time>2026-03-29T08:20:24.317Z</time></trkpt><trkpt lat="45.6359087" lon="11.4015037"><ele>390.0</ele><time>2026-03-29T08:20:25.318Z</time></trkpt><trkpt lat="45.6359722" lon="11.4015676"><ele>390.0</ele><time>2026-03-29T08:20:26.317Z</time></trkpt><trkpt lat="45.6360738" lon="11.4016308"><ele>387.5</ele><time>2026-03-29T08:20:27.317Z</time></trkpt><trkpt lat="45.636189" lon="11.4016796"><ele>385.0</ele><time>2026-03-29T08:20:28.317Z</time></trkpt><trkpt lat="45.6363063" lon="11.40168"><ele>382.5</ele><time>2026-03-29T08:20:29.317Z</time></trkpt><trkpt lat="45.6363855" lon="11.4017895"><ele>380.0</ele><time>2026-03-29T08:20:30.318Z</time></trkpt><trkpt lat="45.6364975" lon="11.4018778"><ele>380.0</ele><time>2026-03-29T08:20:31.317Z</time></trkpt><trkpt lat="45.6365793" lon="11.4019824"><ele>380.0</ele><time>2026-03-29T08:20:32.318Z</time></trkpt><trkpt lat="45.6366459" lon="11.4020899"><ele>380.0</ele><time>2026-03-29T08:20:33.317Z</time></trkpt><trkpt lat="45.6367007" lon="11.4022097"><ele>380.0</ele><time>2026-03-29T08:20:34.316Z</time></trkpt><trkpt lat="45.6367406" lon="11.4023342"><ele>380.0</ele><time>2026-03-29T08:20:35.317Z</time></trkpt><trkpt lat="45.6367703" lon="11.4024577"><ele>378.75</ele><time>2026-03-29T08:20:36.317Z</time></trkpt><trkpt lat="45.636823" lon="11.402677"><ele>377.5</ele><time>2026-03-29T08:20:37.316Z</time></trkpt><trkpt lat="45.6368462" lon="11.4028543"><ele>376.25</ele><time>2026-03-29T08:20:38.318Z</time></trkpt><trkpt lat="45.6368534" lon="11.4030208"><ele>375.0</ele><time>2026-03-29T08:20:39.318Z</time></trkpt><trkpt lat="45.6368475" lon="11.4031854"><ele>373.0</ele><time>2026-03-29T08:20:40.318Z</time></trkpt><trkpt lat="45.6368408" lon="11.4033379"><ele>371.0</ele><time>2026-03-29T08:20:41.317Z</time></trkpt><trkpt lat="45.6368315" lon="11.4034937"><ele>369.0</ele><time>2026-03-29T08:20:42.318Z</time></trkpt><trkpt lat="45.6368335" lon="11.4036627"><ele>367.0</ele><time>2026-03-29T08:20:43.316Z</time></trkpt><trkpt lat="45.6368526" lon="11.4038583"><ele>363.75</ele><time>2026-03-29T08:20:44.318Z</time></trkpt><trkpt lat="45.6368526" lon="11.4040471"><ele>360.5</ele><time>2026-03-29T08:20:45.316Z</time></trkpt><trkpt lat="45.6369008" lon="11.4042595"><ele>357.25</ele><time>2026-03-29T08:20:46.317Z</time></trkpt><trkpt lat="45.6369424" lon="11.4044617"><ele>354.0</ele><time>2026-03-29T08:20:47.316Z</time></trkpt><trkpt lat="45.6369764" lon="11.4046581"><ele>355.75</ele><time>2026-03-29T08:20:48.317Z</time></trkpt><trkpt lat="45.6370181" lon="11.4048425"><ele>357.5</ele><time>2026-03-29T08:20:49.317Z</time></trkpt><trkpt lat="45.6370722" lon="11.4050312"><ele>359.25</ele><time>2026-03-29T08:20:50.317Z</time></trkpt><trkpt lat="45.6371198" lon="11.4051639"><ele>361.0</ele><time>2026-03-29T08:20:51.318Z</time></trkpt><trkpt lat="45.6371658" lon="11.4052862"><ele>361.0</ele><time>2026-03-29T08:20:52.318Z</time></trkpt><trkpt lat="45.6372146" lon="11.4053963"><ele>361.0</ele><time>2026-03-29T08:20:53.318Z</time></trkpt><trkpt lat="45.6372756" lon="11.4055087"><ele>361.0</ele><time>2026-03-29T08:20:54.318Z</time></trkpt><trkpt lat="45.6373386" lon="11.4055725"><ele>361.0</ele><time>2026-03-29T08:20:55.316Z</time></trkpt><trkpt lat="45.6374482" lon="11.4056476"><ele>361.0</ele><time>2026-03-29T08:20:56.316Z</time></trkpt><trkpt lat="45.6375544" lon="11.4057163"><ele>355.5</ele><time>2026-03-29T08:20:57.316Z</time></trkpt><trkpt lat="45.6376631" lon="11.4057328"><ele>350.0</ele><time>2026-03-29T08:20:58.318Z</time></trkpt><trkpt lat="45.6377836" lon="11.4056921"><ele>344.5</ele><time>2026-03-29T08:20:59.318Z</time></trkpt><trkpt lat="45.6379518" lon="11.4056736"><ele>339.0</ele><time>2026-03-29T08:21:00.317Z</time></trkpt><trkpt lat="45.6380821" lon="11.4056663"><ele>338.0</ele><time>2026-03-29T08:21:01.317Z</time></trkpt><trkpt lat="45.6381896" lon="11.4057056"><ele>337.0</ele><time>2026-03-29T08:21:02.318Z</time></trkpt><trkpt lat="45.6382834" lon="11.4057875"><ele>336.0</ele><time>2026-03-29T08:21:03.317Z</time></trkpt><trkpt lat="45.6383682" lon="11.4058632"><ele>335.0</ele><time>2026-03-29T08:21:04.317Z</time></trkpt><trkpt lat="45.6384456" lon="11.4059396"><ele>334.0</ele><time>2026-03-29T08:21:05.316Z</time></trkpt><trkpt lat="45.6385366" lon="11.406012"><ele>334.0</ele><time>2026-03-29T08:21:06.318Z</time></trkpt><trkpt lat="45.6386224" lon="11.4060414"><ele>334.0</ele><time>2026-03-29T08:21:07.318Z</time></trkpt><trkpt lat="45.6387151" lon="11.4060572"><ele>334.0</ele><time>2026-03-29T08:21:08.316Z</time></trkpt><trkpt lat="45.6387958" lon="11.4060909"><ele>334.0</ele><time>2026-03-29T08:21:09.317Z</time></trkpt><trkpt lat="45.6388799" lon="11.4061265"><ele>334.0</ele><time>2026-03-29T08:21:10.318Z</time></trkpt><trkpt lat="45.6389588" lon="11.4061304"><ele>334.0</ele><time>2026-03-29T08:21:11.317Z</time></trkpt><trkpt lat="45.6390406" lon="11.4061462"><ele>334.2</ele><time>2026-03-29T08:21:12.318Z</time></trkpt><trkpt lat="45.6391311" lon="11.4061646"><ele>334.4</ele><time>2026-03-29T08:21:13.318Z</time></trkpt><trkpt lat="45.6392182" lon="11.4061919"><ele>334.6</ele><time>2026-03-29T08:21:14.318Z</time></trkpt><trkpt lat="45.6393019" lon="11.4062112"><ele>334.8</ele><time>2026-03-29T08:21:15.318Z</time></trkpt><trkpt lat="45.6394049" lon="11.4061997"><ele>335.0</ele><time>2026-03-29T08:21:16.316Z</time></trkpt><trkpt lat="45.6394985" lon="11.40624"><ele>334.2</ele><time>2026-03-29T08:21:17.316Z</time></trkpt><trkpt lat="45.6396048" lon="11.406244"><ele>333.4</ele><time>2026-03-29T08:21:18.317Z</time></trkpt><trkpt lat="45.6397136" lon="11.4062482"><ele>332.6</ele><time>2026-03-29T08:21:19.316Z</time></trkpt><trkpt lat="45.6398174" lon="11.4062634"><ele>331.8</ele><time>2026-03-29T08:21:20.318Z</time></trkpt><trkpt lat="45.639923" lon="11.4062834"><ele>331.0</ele><time>2026-03-29T08:21:21.317Z</time></trkpt><trkpt lat="45.6400373" lon="11.4062686"><ele>331.0</ele><time>2026-03-29T08:21:22.316Z</time></trkpt><trkpt lat="45.6401317" lon="11.4063158"><ele>331.0</ele><time>2026-03-29T08:21:23.316Z</time></trkpt><trkpt lat="45.6402389" lon="11.4063409"><ele>331.0</ele><time>2026-03-29T08:21:24.317Z</time></trkpt><trkpt lat="45.6403219" lon="11.4063566"><ele>331.0</ele><time>2026-03-29T08:21:25.318Z</time></trkpt><trkpt lat="45.6403799" lon="11.4064328"><ele>331.0</ele><time>2026-03-29T08:21:26.318Z</time></trkpt><trkpt lat="45.640454" lon="11.4064805"><ele>326.8333333333333</ele><time>2026-03-29T08:21:27.317Z</time></trkpt><trkpt lat="45.640533" lon="11.4064963"><ele>322.66666666666663</ele><time>2026-03-29T08:21:28.317Z</time></trkpt><trkpt lat="45.6405979" lon="11.4065029"><ele>318.5</ele><time>2026-03-29T08:21:29.318Z</time></trkpt><trkpt lat="45.6406818" lon="11.4064922"><ele>314.3333333333333</ele><time>2026-03-29T08:21:30.317Z</time></trkpt><trkpt lat="45.6407894" lon="11.4064639"><ele>310.1666666666667</ele><time>2026-03-29T08:21:31.317Z</time></trkpt><trkpt lat="45.6408873" lon="11.4064427"><ele>306.0</ele><time>2026-03-29T08:21:32.317Z</time></trkpt><trkpt lat="45.6409577" lon="11.4064273"><ele>306.0</ele><time>2026-03-29T08:21:33.317Z</time></trkpt><trkpt lat="45.6410242" lon="11.4064168"><ele>306.0</ele><time>2026-03-29T08:21:34.317Z</time></trkpt><trkpt lat="45.6411198" lon="11.4063984"><ele>306.0</ele><time>2026-03-29T08:21:35.317Z</time></trkpt><trkpt lat="45.6411894" lon="11.4064216"><ele>306.0</ele><time>2026-03-29T08:21:36.318Z</time></trkpt><trkpt lat="45.6413094" lon="11.4064145"><ele>306.0</ele><time>2026-03-29T08:21:37.317Z</time></trkpt><trkpt lat="45.6413921" lon="11.4063693"><ele>306.0</ele><time>2026-03-29T08:21:38.317Z</time></trkpt><trkpt lat="45.6414637" lon="11.4063114"><ele>309.4</ele><time>2026-03-29T08:21:39.317Z</time></trkpt><trkpt lat="45.6415747" lon="11.406227"><ele>312.8</ele><time>2026-03-29T08:21:40.318Z</time></trkpt><trkpt lat="45.6416725" lon="11.4061645"><ele>316.2</ele><time>2026-03-29T08:21:41.317Z</time></trkpt><trkpt lat="45.641751" lon="11.4061319"><ele>319.59999999999997</ele><time>2026-03-29T08:21:42.316Z</time></trkpt><trkpt lat="45.6418349" lon="11.4061072"><ele>323.0</ele><time>2026-03-29T08:21:43.317Z</time></trkpt><trkpt lat="45.641933" lon="11.4060595"><ele>321.0</ele><time>2026-03-29T08:21:44.318Z</time></trkpt><trkpt lat="45.6420306" lon="11.4060325"><ele>319.0</ele><time>2026-03-29T08:21:45.317Z</time></trkpt><trkpt lat="45.6421179" lon="11.4060147"><ele>317.0</ele><time>2026-03-29T08:21:46.317Z</time></trkpt><trkpt lat="45.6422122" lon="11.4060141"><ele>315.0</ele><time>2026-03-29T08:21:47.317Z</time></trkpt><trkpt lat="45.6423025" lon="11.4060136"><ele>313.0</ele><time>2026-03-29T08:21:48.317Z</time></trkpt><trkpt lat="45.6423954" lon="11.4060008"><ele>313.0</ele><time>2026-03-29T08:21:49.318Z</time></trkpt><trkpt lat="45.6424861" lon="11.4059834"><ele>313.0</ele><time>2026-03-29T08:21:50.317Z</time></trkpt><trkpt lat="45.642576" lon="11.4059609"><ele>313.0</ele><time>2026-03-29T08:21:51.316Z</time></trkpt><trkpt lat="45.6426702" lon="11.4059186"><ele>313.0</ele><time>2026-03-29T08:21:52.317Z</time></trkpt><trkpt lat="45.6427564" lon="11.4058924"><ele>313.0</ele><time>2026-03-29T08:21:53.317Z</time></trkpt><trkpt lat="45.6428425" lon="11.405872"><ele>311.16666666666663</ele><time>2026-03-29T08:21:54.318Z</time></trkpt><trkpt lat="45.6429271" lon="11.4058638"><ele>309.3333333333333</ele><time>2026-03-29T08:21:55.318Z</time></trkpt><trkpt lat="45.6430214" lon="11.4058387"><ele>307.5</ele><time>2026-03-29T08:21:56.316Z</time></trkpt><trkpt lat="45.6431044" lon="11.4058264"><ele>305.6666666666667</ele><time>2026-03-29T08:21:57.316Z</time></trkpt><trkpt lat="45.6431808" lon="11.405855"><ele>303.83333333333337</ele><time>2026-03-29T08:21:58.317Z</time></trkpt><trkpt lat="45.6432482" lon="11.4059363"><ele>302.0</ele><time>2026-03-29T08:21:59.316Z</time></trkpt><trkpt lat="45.6433218" lon="11.406023"><ele>302.0</ele><time>2026-03-29T08:22:00.318Z</time></trkpt><trkpt lat="45.6433879" lon="11.4061284"><ele>302.0</ele><time>2026-03-29T08:22:01.318Z</time></trkpt><trkpt lat="45.6434652" lon="11.4062384"><ele>302.0</ele><time>2026-03-29T08:22:02.318Z</time></trkpt><trkpt lat="45.6435491" lon="11.4063626"><ele>302.0</ele><time>2026-03-29T08:22:03.317Z</time></trkpt><trkpt lat="45.6436188" lon="11.4064907"><ele>302.0</ele><time>2026-03-29T08:22:04.317Z</time></trkpt><trkpt lat="45.6436775" lon="11.4065905"><ele>298.6</ele><time>2026-03-29T08:22:05.318Z</time></trkpt><trkpt lat="45.6437408" lon="11.4066808"><ele>295.2</ele><time>2026-03-29T08:22:06.317Z</time></trkpt><trkpt lat="45.6437938" lon="11.4068345"><ele>291.8</ele><time>2026-03-29T08:22:08.317Z</time></trkpt><trkpt lat="45.6437856" lon="11.4069467"><ele>288.4</ele><time>2026-03-29T08:22:09.317Z</time></trkpt><trkpt lat="45.6437578" lon="11.4070372"><ele>285.0</ele><time>2026-03-29T08:22:10.318Z</time></trkpt><trkpt lat="45.6436561" lon="11.4071024"><ele>286.3333333333333</ele><time>2026-03-29T08:22:12.316Z</time></trkpt><trkpt lat="45.6435688" lon="11.4071722"><ele>287.6666666666667</ele><time>2026-03-29T08:22:14.318Z</time></trkpt><trkpt lat="45.6435247" lon="11.4072438"><ele>289.0</ele><time>2026-03-29T08:22:15.317Z</time></trkpt><trkpt lat="45.6434821" lon="11.4073163"><ele>290.33333333333337</ele><time>2026-03-29T08:22:16.318Z</time></trkpt><trkpt lat="45.643393" lon="11.4074172"><ele>291.6666666666667</ele><time>2026-03-29T08:22:18.317Z</time></trkpt><trkpt lat="45.6433414" lon="11.4074774"><ele>293.0</ele><time>2026-03-29T08:22:19.317Z</time></trkpt><trkpt lat="45.6432933" lon="11.4075532"><ele>293.0</ele><time>2026-03-29T08:22:20.318Z</time></trkpt><trkpt lat="45.6432638" lon="11.4076614"><ele>293.0</ele><time>2026-03-29T08:22:22.318Z</time></trkpt><trkpt lat="45.6432262" lon="11.4077748"><ele>293.0</ele><time>2026-03-29T08:22:24.316Z</time></trkpt><trkpt lat="45.643176" lon="11.4078767"><ele>293.0</ele><time>2026-03-29T08:22:26.318Z</time></trkpt><trkpt lat="45.6430899" lon="11.4079065"><ele>293.0</ele><time>2026-03-29T08:22:27.317Z</time></trkpt><trkpt lat="45.6429792" lon="11.4079812"><ele>293.1666666666667</ele><time>2026-03-29T08:22:29.318Z</time></trkpt><trkpt lat="45.6428801" lon="11.4080355"><ele>293.33333333333337</ele><time>2026-03-29T08:22:31.318Z</time></trkpt><trkpt lat="45.6427818" lon="11.4081001"><ele>293.5</ele><time>2026-03-29T08:22:33.318Z</time></trkpt><trkpt lat="45.6427277" lon="11.4081495"><ele>293.6666666666667</ele><time>2026-03-29T08:22:34.317Z</time></trkpt><trkpt lat="45.6426681" lon="11.4081924"><ele>293.8333333333333</ele><time>2026-03-29T08:22:35.318Z</time></trkpt><trkpt lat="45.6425978" lon="11.4082067"><ele>294.0</ele><time>2026-03-29T08:22:36.317Z</time></trkpt><trkpt lat="45.6425035" lon="11.4083335"><ele>294.0</ele><time>2026-03-29T08:22:37.318Z</time></trkpt><trkpt lat="45.6424398" lon="11.4083034"><ele>294.0</ele><time>2026-03-29T08:22:39.316Z</time></trkpt><trkpt lat="45.6423449" lon="11.408326"><ele>294.0</ele><time>2026-03-29T08:22:41.316Z</time></trkpt><trkpt lat="45.6423144" lon="11.4081157"><ele>294.0</ele><time>2026-03-29T08:22:43.317Z</time></trkpt><trkpt lat="45.6422438" lon="11.4079552"><ele>294.0</ele><time>2026-03-29T08:22:45.317Z</time></trkpt><trkpt lat="45.642156" lon="11.4078455"><ele>292.8333333333333</ele><time>2026-03-29T08:22:47.318Z</time></trkpt><trkpt lat="45.6420911" lon="11.4078161"><ele>291.6666666666667</ele><time>2026-03-29T08:22:48.317Z</time></trkpt><trkpt lat="45.6420091" lon="11.4078331"><ele>290.5</ele><time>2026-03-29T08:22:49.316Z</time></trkpt><trkpt lat="45.6419262" lon="11.407857"><ele>289.33333333333337</ele><time>2026-03-29T08:22:50.318Z</time></trkpt><trkpt lat="45.6418333" lon="11.4078786"><ele>288.1666666666667</ele><time>2026-03-29T08:22:51.317Z</time></trkpt><trkpt lat="45.6417316" lon="11.4079046"><ele>287.0</ele><time>2026-03-29T08:22:52.318Z</time></trkpt><trkpt lat="45.6416289" lon="11.4079214"><ele>285.4</ele><time>2026-03-29T08:22:53.316Z</time></trkpt><trkpt lat="45.6415288" lon="11.4079357"><ele>283.79999999999995</ele><time>2026-03-29T08:22:54.317Z</time></trkpt><trkpt lat="45.6414286" lon="11.4079558"><ele>282.2</ele><time>2026-03-29T08:22:55.316Z</time></trkpt><trkpt lat="45.6413298" lon="11.40798"><ele>280.59999999999997</ele><time>2026-03-29T08:22:56.317Z</time></trkpt><trkpt lat="45.6412323" lon="11.4080181"><ele>279.0</ele><time>2026-03-29T08:22:57.317Z</time></trkpt><trkpt lat="45.6411312" lon="11.4080687"><ele>277.2</ele><time>2026-03-29T08:22:58.317Z</time></trkpt><trkpt lat="45.6410314" lon="11.4081266"><ele>275.4</ele><time>2026-03-29T08:22:59.316Z</time></trkpt><trkpt lat="45.6409347" lon="11.4081895"><ele>273.6</ele><time>2026-03-29T08:23:00.317Z</time></trkpt><trkpt lat="45.6408331" lon="11.40826"><ele>271.8</ele><time>2026-03-29T08:23:01.317Z</time></trkpt><trkpt lat="45.6407279" lon="11.4083234"><ele>270.0</ele><time>2026-03-29T08:23:02.318Z</time></trkpt><trkpt lat="45.6406285" lon="11.4084066"><ele>270.0</ele><time>2026-03-29T08:23:03.316Z</time></trkpt><trkpt lat="45.6405017" lon="11.4084433"><ele>270.0</ele><time>2026-03-29T08:23:04.318Z</time></trkpt><trkpt lat="45.640396" lon="11.4085053"><ele>270.0</ele><time>2026-03-29T08:23:05.317Z</time></trkpt><trkpt lat="45.6403078" lon="11.4086139"><ele>270.0</ele><time>2026-03-29T08:23:06.316Z</time></trkpt><trkpt lat="45.6402368" lon="11.4087143"><ele>270.0</ele><time>2026-03-29T08:23:07.318Z</time></trkpt><trkpt lat="45.6401607" lon="11.4088182"><ele>270.0</ele><time>2026-03-29T08:23:08.317Z</time></trkpt><trkpt lat="45.640086" lon="11.408918"><ele>270.0</ele><time>2026-03-29T08:23:09.318Z</time></trkpt><trkpt lat="45.6400171" lon="11.4089511"><ele>270.0</ele><time>2026-03-29T08:23:10.317Z</time></trkpt><trkpt lat="45.6399619" lon="11.4090363"><ele>270.0</ele><time>2026-03-29T08:23:11.317Z</time></trkpt><trkpt lat="45.6398882" lon="11.4090887"><ele>270.0</ele><time>2026-03-29T08:23:12.317Z</time></trkpt><trkpt lat="45.6398223" lon="11.4091277"><ele>270.0</ele><time>2026-03-29T08:23:13.317Z</time></trkpt><trkpt lat="45.6397623" lon="11.4091677"><ele>270.0</ele><time>2026-03-29T08:23:14.317Z</time></trkpt><trkpt lat="45.6397043" lon="11.4092137"><ele>270.0</ele><time>2026-03-29T08:23:15.317Z</time></trkpt><trkpt lat="45.6395932" lon="11.4092738"><ele>270.0</ele><time>2026-03-29T08:23:17.318Z</time></trkpt><trkpt lat="45.6394926" lon="11.4093373"><ele>270.0</ele><time>2026-03-29T08:23:19.316Z</time></trkpt><trkpt lat="45.639386" lon="11.4093797"><ele>270.6</ele><time>2026-03-29T08:23:21.317Z</time></trkpt><trkpt lat="45.6393229" lon="11.4094334"><ele>271.2</ele><time>2026-03-29T08:23:22.318Z</time></trkpt><trkpt lat="45.6392568" lon="11.4094908"><ele>271.8</ele><time>2026-03-29T08:23:23.316Z</time></trkpt><trkpt lat="45.639191" lon="11.409534"><ele>272.4</ele><time>2026-03-29T08:23:25.317Z</time></trkpt><trkpt lat="45.6391113" lon="11.4095722"><ele>273.0</ele><time>2026-03-29T08:23:27.317Z</time></trkpt><trkpt lat="45.6428801" lon="11.4080355"><ele>276.5</ele><time>2026-03-29T08:22:31.318Z</time></trkpt><trkpt lat="45.6427818" lon="11.4081001"><ele>280.0</ele><time>2026-03-29T08:22:33.318Z</time></trkpt><trkpt lat="45.6427277" lon="11.4081495"><ele>283.5</ele><time>2026-03-29T08:22:34.317Z</time></trkpt><trkpt lat="45.6426681" lon="11.4081924"><ele>287.0</ele><time>2026-03-29T08:22:35.318Z</time></trkpt><trkpt lat="45.6425978" lon="11.4082067"><ele>290.5</ele><time>2026-03-29T08:22:36.317Z</time></trkpt><trkpt lat="45.6425035" lon="11.4083335"><ele>294.0</ele><time>2026-03-29T08:22:37.318Z</time></trkpt><trkpt lat="45.6424398" lon="11.4083034"><ele>294.0</ele><time>2026-03-29T08:22:39.316Z</time></trkpt><trkpt lat="45.6423449" lon="11.408326"><ele>294.0</ele><time>2026-03-29T08:22:41.316Z</time></trkpt><trkpt lat="45.6423144" lon="11.4081157"><ele>294.0</ele><time>2026-03-29T08:22:43.317Z</time></trkpt><trkpt lat="45.6422438" lon="11.4079552"><ele>294.0</ele><time>2026-03-29T08:22:45.317Z</time></trkpt><trkpt lat="45.642156" lon="11.4078455"><ele>292.8333333333333</ele><time>2026-03-29T08:22:47.318Z</time></trkpt><trkpt lat="45.6420911" lon="11.4078161"><ele>291.6666666666667</ele><time>2026-03-29T08:22:48.317Z</time></trkpt><trkpt lat="45.6420091" lon="11.4078331"><ele>290.5</ele><time>2026-03-29T08:22:49.316Z</time></trkpt><trkpt lat="45.6419262" lon="11.407857"><ele>289.33333333333337</ele><time>2026-03-29T08:22:50.318Z</time></trkpt><trkpt lat="45.6418333" lon="11.4078786"><ele>288.1666666666667</ele><time>2026-03-29T08:22:51.317Z</time></trkpt><trkpt lat="45.6417316" lon="11.4079046"><ele>287.0</ele><time>2026-03-29T08:22:52.318Z</time></trkpt><trkpt lat="45.6416289" lon="11.4079214"><ele>285.4</ele><time>2026-03-29T08:22:53.316Z</time></trkpt><trkpt lat="45.6415288" lon="11.4079357"><ele>283.79999999999995</ele><time>2026-03-29T08:22:54.317Z</time></trkpt><trkpt lat="45.6414286" lon="11.4079558"><ele>282.2</ele><time>2026-03-29T08:22:55.316Z</time></trkpt><trkpt lat="45.6413298" lon="11.40798"><ele>280.59999999999997</ele><time>2026-03-29T08:22:56.317Z</time></trkpt><trkpt lat="45.6412323" lon="11.4080181"><ele>279.0</ele><time>2026-03-29T08:22:57.317Z</time></trkpt><trkpt lat="45.6411312" lon="11.4080687"><ele>277.2</ele><time>2026-03-29T08:22:58.317Z</time></trkpt><trkpt lat="45.6410314" lon="11.4081266"><ele>275.4</ele><time>2026-03-29T08:22:59.316Z</time></trkpt><trkpt lat="45.6409347" lon="11.4081895"><ele>273.6</ele><time>2026-03-29T08:23:00.317Z</time></trkpt><trkpt lat="45.6408331" lon="11.40826"><ele>271.8</ele><time>2026-03-29T08:23:01.317Z</time></trkpt><trkpt lat="45.6407279" lon="11.4083234"><ele>270.0</ele><time>2026-03-29T08:23:02.318Z</time></trkpt><trkpt lat="45.6406285" lon="11.4084066"><ele>270.0</ele><time>2026-03-29T08:23:03.316Z</time></trkpt><trkpt lat="45.6405017" lon="11.4084433"><ele>270.0</ele><time>2026-03-29T08:23:04.318Z</time></trkpt><trkpt lat="45.640396" lon="11.4085053"><ele>270.0</ele><time>2026-03-29T08:23:05.317Z</time></trkpt><trkpt lat="45.6403078" lon="11.4086139"><ele>270.0</ele><time>2026-03-29T08:23:06.316Z</time></trkpt><trkpt lat="45.6402368" lon="11.4087143"><ele>270.0</ele><time>2026-03-29T08:23:07.318Z</time></trkpt><trkpt lat="45.6401607" lon="11.4088182"><ele>270.0</ele><time>2026-03-29T08:23:08.317Z</time></trkpt><trkpt lat="45.640086" lon="11.408918"><ele>270.0</ele><time>2026-03-29T08:23:09.318Z</time></trkpt><trkpt lat="45.6400171" lon="11.4089511"><ele>270.0</ele><time>2026-03-29T08:23:10.317Z</time></trkpt><trkpt lat="45.6399619" lon="11.4090363"><ele>270.0</ele><time>2026-03-29T08:23:11.317Z</time></trkpt><trkpt lat="45.6398882" lon="11.4090887"><ele>270.0</ele><time>2026-03-29T08:23:12.317Z</time></trkpt><trkpt lat="45.6398223" lon="11.4091277"><ele>270.0</ele><time>2026-03-29T08:23:13.317Z</time></trkpt><trkpt lat="45.6397623" lon="11.4091677"><ele>270.0</ele><time>2026-03-29T08:23:14.317Z</time></trkpt><trkpt lat="45.6397043" lon="11.4092137"><ele>270.0</ele><time>2026-03-29T08:23:15.317Z</time></trkpt><trkpt lat="45.6395932" lon="11.4092738"><ele>270.0</ele><time>2026-03-29T08:23:17.318Z</time></trkpt><trkpt lat="45.6394926" lon="11.4093373"><ele>270.0</ele><time>2026-03-29T08:23:19.316Z</time></trkpt><trkpt lat="45.639386" lon="11.4093797"><ele>270.5</ele><time>2026-03-29T08:23:21.317Z</time></trkpt><trkpt lat="45.6393229" lon="11.4094334"><ele>271.0</ele><time>2026-03-29T08:23:22.318Z</time></trkpt><trkpt lat="45.6392568" lon="11.4094908"><ele>271.5</ele><time>2026-03-29T08:23:23.316Z</time></trkpt><trkpt lat="45.639191" lon="11.409534"><ele>272.0</ele><time>2026-03-29T08:23:25.317Z</time></trkpt><trkpt lat="45.6391113" lon="11.4095722"><ele>272.5</ele><time>2026-03-29T08:23:27.317Z</time></trkpt><trkpt lat="45.6390075" lon="11.4095998"><ele>273.0</ele><time>2026-03-29T08:23:29.317Z</time></trkpt><trkpt lat="45.638957" lon="11.4096929"><ele>271.8</ele><time>2026-03-29T08:23:31.316Z</time></trkpt><trkpt lat="45.6389265" lon="11.4097851"><ele>270.6</ele><time>2026-03-29T08:23:32.316Z</time></trkpt><trkpt lat="45.6388851" lon="11.4099371"><ele>269.4</ele><time>2026-03-29T08:23:34.317Z</time></trkpt><trkpt lat="45.6388302" lon="11.4100337"><ele>268.2</ele><time>2026-03-29T08:23:36.317Z</time></trkpt><trkpt lat="45.6387583" lon="11.4099811"><ele>267.0</ele><time>2026-03-29T08:23:40.317Z</time></trkpt><trkpt lat="45.6386794" lon="11.4098779"><ele>266.25</ele><time>2026-03-29T08:23:42.316Z</time></trkpt><trkpt lat="45.6386039" lon="11.4097164"><ele>265.5</ele><time>2026-03-29T08:23:44.317Z</time></trkpt><trkpt lat="45.6385294" lon="11.4096921"><ele>264.75</ele><time>2026-03-29T08:23:45.317Z</time></trkpt><trkpt lat="45.6384837" lon="11.4095217"><ele>264.0</ele><time>2026-03-29T08:23:47.317Z</time></trkpt><trkpt lat="45.638415" lon="11.4093679"><ele>264.0</ele><time>2026-03-29T08:23:49.317Z</time></trkpt><trkpt lat="45.6383715" lon="11.4092936"><ele>264.0</ele><time>2026-03-29T08:23:50.317Z</time></trkpt><trkpt lat="45.6383303" lon="11.4091499"><ele>264.0</ele><time>2026-03-29T08:23:52.317Z</time></trkpt><trkpt lat="45.6382969" lon="11.409018"><ele>264.0</ele><time>2026-03-29T08:23:54.317Z</time></trkpt><trkpt lat="45.6382434" lon="11.408954"><ele>264.0</ele><time>2026-03-29T08:23:55.317Z</time></trkpt><trkpt lat="45.6381823" lon="11.408869"><ele>264.0</ele><time>2026-03-29T08:23:58.317Z</time></trkpt><trkpt lat="45.6381144" lon="11.4088507"><ele>264.0</ele><time>2026-03-29T08:24:01.316Z</time></trkpt><trkpt lat="45.6380323" lon="11.4088329"><ele>264.0</ele><time>2026-03-29T08:24:04.317Z</time></trkpt><trkpt lat="45.6379467" lon="11.4088564"><ele>264.0</ele><time>2026-03-29T08:24:07.316Z</time></trkpt><trkpt lat="45.6378684" lon="11.4088737"><ele>264.0</ele><time>2026-03-29T08:24:10.318Z</time></trkpt><trkpt lat="45.6377754" lon="11.4088983"><ele>264.0</ele><time>2026-03-29T08:24:12.317Z</time></trkpt><trkpt lat="45.6376443" lon="11.408893"><ele>263.1666666666667</ele><time>2026-03-29T08:24:13.316Z</time></trkpt><trkpt lat="45.6375836" lon="11.4089213"><ele>262.3333333333333</ele><time>2026-03-29T08:24:14.318Z</time></trkpt><trkpt lat="45.6374531" lon="11.4089791"><ele>261.5</ele><time>2026-03-29T08:24:16.318Z</time></trkpt><trkpt lat="45.6373863" lon="11.4090051"><ele>260.66666666666663</ele><time>2026-03-29T08:24:17.317Z</time></trkpt><trkpt lat="45.6373077" lon="11.4090332"><ele>259.8333333333333</ele><time>2026-03-29T08:24:18.317Z</time></trkpt><trkpt lat="45.6372314" lon="11.4090722"><ele>259.0</ele><time>2026-03-29T08:24:20.319Z</time></trkpt><trkpt lat="45.6371612" lon="11.4090935"><ele>259.0</ele><time>2026-03-29T08:24:22.316Z</time></trkpt><trkpt lat="45.6370587" lon="11.4090927"><ele>259.0</ele><time>2026-03-29T08:24:25.316Z</time></trkpt><trkpt lat="45.6369732" lon="11.409064"><ele>259.0</ele><time>2026-03-29T08:24:27.317Z</time></trkpt><trkpt lat="45.636885" lon="11.4090164"><ele>259.0</ele><time>2026-03-29T08:24:30.317Z</time></trkpt><trkpt lat="45.6368146" lon="11.4089905"><ele>259.0</ele><time>2026-03-29T08:24:32.317Z</time></trkpt><trkpt lat="45.6367353" lon="11.4089799"><ele>259.0</ele><time>2026-03-29T08:24:34.316Z</time></trkpt><trkpt lat="45.6366481" lon="11.4090057"><ele>258.5</ele><time>2026-03-29T08:24:36.316Z</time></trkpt><trkpt lat="45.6365563" lon="11.4090627"><ele>258.0</ele><time>2026-03-29T08:24:38.316Z</time></trkpt><trkpt lat="45.6364848" lon="11.4091109"><ele>257.5</ele><time>2026-03-29T08:24:40.316Z</time></trkpt><trkpt lat="45.6364672" lon="11.4092058"><ele>257.0</ele><time>2026-03-29T08:24:43.316Z</time></trkpt><trkpt lat="45.6365063" lon="11.4093154"><ele>256.5</ele><time>2026-03-29T08:24:46.317Z</time></trkpt><trkpt lat="45.6365174" lon="11.4094192"><ele>256.0</ele><time>2026-03-29T08:24:49.317Z</time></trkpt><trkpt lat="45.6364794" lon="11.4094939"><ele>256.0</ele><time>2026-03-29T08:24:52.317Z</time></trkpt><trkpt lat="45.636448" lon="11.4095863"><ele>255.99999999999997</ele><time>2026-03-29T08:24:55.316Z</time></trkpt><trkpt lat="45.6364079" lon="11.4096765"><ele>256.0</ele><time>2026-03-29T08:24:59.315Z</time></trkpt><trkpt lat="45.636367" lon="11.4097483"><ele>256.0</ele><time>2026-03-29T08:25:02.315Z</time></trkpt><trkpt lat="45.6363446" lon="11.4098342"><ele>255.99999999999997</ele><time>2026-03-29T08:25:06.316Z</time></trkpt><trkpt lat="45.6362849" lon="11.4099127"><ele>256.0</ele><time>2026-03-29T08:25:13.316Z</time></trkpt><trkpt lat="45.6362103" lon="11.4099805"><ele>256.0</ele><time>2026-03-29T08:25:17.317Z</time></trkpt><trkpt lat="45.6361473" lon="11.4100072"><ele>252.16666666666666</ele><time>2026-03-29T08:25:19.318Z</time></trkpt><trkpt lat="45.6360817" lon="11.410037"><ele>248.33333333333331</ele><time>2026-03-29T08:25:21.317Z</time></trkpt><trkpt lat="45.6360237" lon="11.4100825"><ele>244.5</ele><time>2026-03-29T08:25:23.318Z</time></trkpt><trkpt lat="45.6359555" lon="11.4101519"><ele>240.66666666666669</ele><time>2026-03-29T08:25:26.318Z</time></trkpt><trkpt lat="45.6358865" lon="11.410229"><ele>236.83333333333334</ele><time>2026-03-29T08:25:29.318Z</time></trkpt><trkpt lat="45.6358147" lon="11.410286"><ele>233.0</ele><time>2026-03-29T08:25:32.317Z</time></trkpt><trkpt lat="45.6357436" lon="11.4103411"><ele>233.00000000000003</ele><time>2026-03-29T08:25:35.318Z</time></trkpt><trkpt lat="45.6356671" lon="11.410409"><ele>233.0</ele><time>2026-03-29T08:25:38.317Z</time></trkpt><trkpt lat="45.6356097" lon="11.4104604"><ele>233.0</ele><time>2026-03-29T08:25:40.317Z</time></trkpt><trkpt lat="45.6355335" lon="11.4105211"><ele>233.0</ele><time>2026-03-29T08:25:42.317Z</time></trkpt><trkpt lat="45.6354452" lon="11.4106025"><ele>233.00000000000003</ele><time>2026-03-29T08:25:44.318Z</time></trkpt><trkpt lat="45.6353987" lon="11.4107007"><ele>233.0</ele><time>2026-03-29T08:25:46.317Z</time></trkpt><trkpt lat="45.6354104" lon="11.4108151"><ele>231.33333333333334</ele><time>2026-03-29T08:25:48.318Z</time></trkpt><trkpt lat="45.6354549" lon="11.4108918"><ele>229.66666666666669</ele><time>2026-03-29T08:25:50.317Z</time></trkpt><trkpt lat="45.6355185" lon="11.4109649"><ele>228.0</ele><time>2026-03-29T08:25:52.317Z</time></trkpt><trkpt lat="45.6355766" lon="11.4110236"><ele>226.33333333333331</ele><time>2026-03-29T08:25:54.317Z</time></trkpt><trkpt lat="45.6356363" lon="11.4110585"><ele>224.66666666666666</ele><time>2026-03-29T08:25:56.316Z</time></trkpt><trkpt lat="45.6357687" lon="11.4110768"><ele>223.0</ele><time>2026-03-29T08:26:02.317Z</time></trkpt><trkpt lat="45.6358071" lon="11.4111999"><ele>219.25</ele><time>2026-03-29T08:26:05.317Z</time></trkpt><trkpt lat="45.6359583" lon="11.4114545"><ele>215.5</ele><time>2026-03-29T08:26:07.317Z</time></trkpt><trkpt lat="45.6359616" lon="11.4116179"><ele>211.75</ele><time>2026-03-29T08:26:09.316Z</time></trkpt><trkpt lat="45.6359702" lon="11.4117239"><ele>208.0</ele><time>2026-03-29T08:26:10.318Z</time></trkpt><trkpt lat="45.6359775" lon="11.4118373"><ele>208.0</ele><time>2026-03-29T08:26:11.316Z</time></trkpt><trkpt lat="45.6360082" lon="11.4120001"><ele>208.0</ele><time>2026-03-29T08:26:12.317Z</time></trkpt><trkpt lat="45.6360374" lon="11.4121448"><ele>208.0</ele><time>2026-03-29T08:26:13.317Z</time></trkpt><trkpt lat="45.636064" lon="11.4122613"><ele>208.0</ele><time>2026-03-29T08:26:14.317Z</time></trkpt><trkpt lat="45.6360727" lon="11.4123519"><ele>208.0</ele><time>2026-03-29T08:26:15.317Z</time></trkpt><trkpt lat="45.6360143" lon="11.4124553"><ele>208.0</ele><time>2026-03-29T08:26:18.318Z</time></trkpt><trkpt lat="45.6359515" lon="11.4125781"><ele>208.0</ele><time>2026-03-29T08:26:21.317Z</time></trkpt><trkpt lat="45.6359594" lon="11.4120206"><ele>202.5</ele><time>2026-03-29T08:26:23.317Z</time></trkpt><trkpt lat="45.6357664" lon="11.4125847"><ele>197.0</ele><time>2026-03-29T08:26:25.317Z</time></trkpt><trkpt lat="45.635689" lon="11.4127548"><ele>197.0</ele><time>2026-03-29T08:26:26.317Z</time></trkpt><trkpt lat="45.6356243" lon="11.4128943"><ele>197.0</ele><time>2026-03-29T08:26:27.317Z</time></trkpt><trkpt lat="45.6355724" lon="11.4130196"><ele>197.0</ele><time>2026-03-29T08:26:28.317Z</time></trkpt><trkpt lat="45.6355362" lon="11.4131294"><ele>197.0</ele><time>2026-03-29T08:26:29.318Z</time></trkpt><trkpt lat="45.6355088" lon="11.4132277"><ele>197.0</ele><time>2026-03-29T08:26:30.318Z</time></trkpt><trkpt lat="45.6354859" lon="11.4133273"><ele>195.50000000000003</ele><time>2026-03-29T08:26:31.317Z</time></trkpt><trkpt lat="45.6354659" lon="11.4134195"><ele>194.0</ele><time>2026-03-29T08:26:32.317Z</time></trkpt><trkpt lat="45.6354449" lon="11.4135127"><ele>192.5</ele><time>2026-03-29T08:26:33.316Z</time></trkpt><trkpt lat="45.6354161" lon="11.4136028"><ele>191.0</ele><time>2026-03-29T08:26:34.316Z</time></trkpt><trkpt lat="45.6353901" lon="11.4136977"><ele>189.5</ele><time>2026-03-29T08:26:35.317Z</time></trkpt><trkpt lat="45.6353761" lon="11.4138156"><ele>188.0</ele><time>2026-03-29T08:26:36.317Z</time></trkpt><trkpt lat="45.6353105" lon="11.4139158"><ele>184.66666666666666</ele><time>2026-03-29T08:26:38.317Z</time></trkpt><trkpt lat="45.6352449" lon="11.414042"><ele>181.33333333333331</ele><time>2026-03-29T08:26:40.316Z</time></trkpt><trkpt lat="45.6351591" lon="11.4141564"><ele>178.0</ele><time>2026-03-29T08:26:42.317Z</time></trkpt><trkpt lat="45.6351285" lon="11.4142389"><ele>174.66666666666666</ele><time>2026-03-29T08:26:43.317Z</time></trkpt><trkpt lat="45.6350936" lon="11.4143275"><ele>171.33333333333334</ele><time>2026-03-29T08:26:44.317Z</time></trkpt><trkpt lat="45.6350564" lon="11.4144096"><ele>168.0</ele><time>2026-03-29T08:26:45.317Z</time></trkpt><trkpt lat="45.6350169" lon="11.4145043"><ele>168.0</ele><time>2026-03-29T08:26:46.317Z</time></trkpt><trkpt lat="45.6349742" lon="11.4145965"><ele>168.0</ele><time>2026-03-29T08:26:47.316Z</time></trkpt><trkpt lat="45.6349325" lon="11.4147006"><ele>168.0</ele><time>2026-03-29T08:26:48.318Z</time></trkpt><trkpt lat="45.634904" lon="11.4148025"><ele>168.0</ele><time>2026-03-29T08:26:49.316Z</time></trkpt><trkpt lat="45.6348721" lon="11.4148808"><ele>168.0</ele><time>2026-03-29T08:26:50.317Z</time></trkpt><trkpt lat="45.634802" lon="11.4150402"><ele>168.0</ele><time>2026-03-29T08:26:52.317Z</time></trkpt><trkpt lat="45.6347619" lon="11.4151113"><ele>167.0</ele><time>2026-03-29T08:26:53.318Z</time></trkpt><trkpt lat="45.6346746" lon="11.4152532"><ele>166.0</ele><time>2026-03-29T08:26:55.316Z</time></trkpt><trkpt lat="45.6346275" lon="11.4153531"><ele>165.0</ele><time>2026-03-29T08:26:56.318Z</time></trkpt><trkpt lat="45.6345825" lon="11.4154433"><ele>164.0</ele><time>2026-03-29T08:26:57.317Z</time></trkpt><trkpt lat="45.6345153" lon="11.4155687"><ele>163.0</ele><time>2026-03-29T08:26:59.317Z</time></trkpt><trkpt lat="45.6344776" lon="11.4156557"><ele>161.33333333333334</ele><time>2026-03-29T08:27:00.317Z</time></trkpt><trkpt lat="45.6344439" lon="11.4157452"><ele>159.66666666666669</ele><time>2026-03-29T08:27:01.317Z</time></trkpt><trkpt lat="45.6343947" lon="11.4158061"><ele>158.0</ele><time>2026-03-29T08:27:03.317Z</time></trkpt><trkpt lat="45.634392" lon="11.4156973"><ele>156.33333333333334</ele><time>2026-03-29T08:27:07.317Z</time></trkpt><trkpt lat="45.6343904" lon="11.4156005"><ele>154.66666666666666</ele><time>2026-03-29T08:27:09.317Z</time></trkpt><trkpt lat="45.6343877" lon="11.4154951"><ele>153.0</ele><time>2026-03-29T08:27:13.316Z</time></trkpt><trkpt lat="45.6343405" lon="11.4153512"><ele>153.0</ele><time>2026-03-29T08:27:41.318Z</time></trkpt></trkseg></trk></gpx>